createdAt,value
2018-08-03T00:00:46.097Z,22.32
2018-08-03T00:01:46.119Z,22.20
2018-08-03T00:02:46.143Z,22.23
2018-08-03T00:03:46.164Z,22.14
2018-08-03T00:04:46.186Z,22.13
2018-08-03T00:05:46.218Z,22.32
2018-08-03T00:06:46.228Z,22.17
2018-08-03T00:07:46.253Z,22.10
2018-08-03T00:08:46.279Z,22.13
2018-08-03T00:09:46.298Z,22.02
2018-08-03T00:10:46.322Z,21.93
2018-08-03T00:11:46.345Z,22.07
2018-08-03T00:12:46.369Z,21.96
2018-08-03T00:13:46.385Z,21.95
2018-08-03T00:14:46.410Z,21.89
2018-08-03T00:15:46.436Z,22.08
2018-08-03T00:16:46.457Z,22.32
2018-08-03T00:17:46.505Z,22.53
2018-08-03T00:18:46.501Z,22.73
2018-08-03T00:19:46.522Z,22.88
2018-08-03T00:20:46.542Z,22.85
2018-08-03T00:21:46.567Z,23.00
2018-08-03T00:22:46.587Z,22.85
2018-08-03T00:23:46.609Z,22.45
2018-08-03T00:24:46.628Z,22.26
2018-08-03T00:25:46.678Z,22.13
2018-08-03T00:26:46.677Z,22.41
2018-08-03T00:27:46.702Z,22.53
2018-08-03T00:28:46.726Z,22.62
2018-08-03T00:29:46.744Z,22.57
2018-08-03T00:30:46.764Z,22.70
2018-08-03T00:31:46.799Z,22.59
2018-08-03T00:32:46.808Z,22.51
2018-08-03T00:33:46.830Z,22.55
2018-08-03T00:34:46.860Z,22.38
2018-08-03T00:35:46.874Z,22.48
2018-08-03T00:36:46.899Z,22.60
2018-08-03T00:37:46.922Z,22.76
2018-08-03T00:38:46.940Z,22.60
2018-08-03T00:39:46.963Z,22.55
2018-08-03T00:40:46.987Z,22.60
2018-08-03T00:41:47.008Z,22.53
2018-08-03T00:42:47.032Z,22.48
2018-08-03T00:43:47.052Z,22.35
2018-08-03T00:44:47.079Z,22.35
2018-08-03T00:45:47.097Z,22.06
2018-08-03T00:46:47.116Z,21.77
2018-08-03T00:47:47.140Z,21.92
2018-08-03T00:48:47.162Z,21.92
2018-08-03T00:49:47.184Z,21.80
2018-08-03T00:50:47.210Z,21.62
2018-08-03T00:51:47.234Z,21.60
2018-08-03T00:52:47.296Z,21.50
2018-08-03T00:53:47.289Z,21.35
2018-08-03T00:54:47.299Z,21.37
2018-08-03T00:55:47.318Z,21.30
2018-08-03T00:56:47.339Z,21.32
2018-08-03T00:57:47.361Z,21.36
2018-08-03T00:58:47.384Z,21.52
2018-08-03T00:59:47.408Z,21.50
2018-08-03T01:00:47.430Z,21.36
2018-08-03T01:01:47.449Z,21.43
2018-08-03T01:02:47.472Z,21.75
2018-08-03T01:03:47.490Z,22.00
2018-08-03T01:04:47.519Z,22.07
2018-08-03T01:05:47.538Z,21.93
2018-08-03T01:06:47.563Z,22.04
2018-08-03T01:07:47.614Z,22.28
2018-08-03T01:08:47.605Z,22.23
2018-08-03T01:09:47.625Z,22.14
2018-08-03T01:10:47.651Z,22.07
2018-08-03T01:11:47.676Z,21.98
2018-08-03T01:12:47.699Z,21.93
2018-08-03T01:13:47.712Z,21.70
2018-08-03T01:14:47.736Z,21.50
2018-08-03T01:15:47.757Z,21.21
2018-08-03T01:16:47.782Z,21.15
2018-08-03T01:17:47.830Z,21.37
2018-08-03T01:18:47.827Z,21.48
2018-08-03T01:19:47.847Z,21.32
2018-08-03T01:20:47.867Z,21.36
2018-08-03T01:21:47.889Z,21.48
2018-08-03T01:22:47.918Z,21.61
2018-08-03T01:23:47.931Z,21.88
2018-08-03T01:24:47.954Z,21.88
2018-08-03T01:25:47.974Z,21.95
2018-08-03T01:26:48.001Z,21.93
2018-08-03T01:27:48.063Z,21.98
2018-08-03T01:28:48.058Z,22.02
2018-08-03T01:29:48.064Z,21.92
2018-08-03T01:30:48.096Z,21.75
2018-08-03T01:31:48.111Z,21.83
2018-08-03T01:32:48.129Z,21.83
2018-08-03T01:33:48.155Z,21.76
2018-08-03T01:34:48.173Z,21.70
2018-08-03T01:35:48.195Z,21.46
2018-08-03T01:36:48.228Z,21.37
2018-08-03T01:37:48.313Z,21.32
2018-08-03T01:38:48.273Z,21.33
2018-08-03T01:39:48.287Z,21.14
2018-08-03T01:40:48.310Z,21.06
2018-08-03T01:41:48.326Z,21.02
2018-08-03T01:42:48.379Z,20.99
2018-08-03T01:43:48.372Z,21.18
2018-08-03T01:44:48.397Z,21.17
2018-08-03T01:45:48.414Z,21.09
2018-08-03T01:46:48.436Z,21.00
2018-08-03T01:47:48.464Z,20.97
2018-08-03T01:48:48.478Z,21.03
2018-08-03T01:49:48.501Z,21.03
2018-08-03T01:50:48.524Z,21.05
2018-08-03T01:51:48.546Z,20.90
2018-08-03T01:52:48.568Z,20.97
2018-08-03T01:53:48.594Z,20.97
2018-08-03T01:54:48.610Z,20.82
2018-08-03T01:55:48.647Z,20.69
2018-08-03T01:56:48.654Z,20.66
2018-08-03T01:57:48.674Z,20.60
2018-08-03T01:58:48.697Z,20.75
2018-08-03T01:59:48.719Z,20.75
2018-08-03T02:00:48.785Z,20.81
2018-08-03T02:01:48.761Z,20.87
2018-08-03T02:02:48.784Z,21.02
2018-08-03T02:03:48.812Z,20.97
2018-08-03T02:04:48.833Z,20.97
2018-08-03T02:05:48.866Z,21.02
2018-08-03T02:06:48.872Z,20.81
2018-08-03T02:07:48.893Z,20.82
2018-08-03T02:08:48.913Z,21.00
2018-08-03T02:09:48.957Z,20.97
2018-08-03T02:10:48.958Z,21.02
2018-08-03T02:11:48.980Z,20.99
2018-08-03T02:12:49.001Z,21.06
2018-08-03T02:13:49.021Z,20.97
2018-08-03T02:14:49.043Z,20.93
2018-08-03T02:15:49.085Z,20.97
2018-08-03T02:16:49.089Z,21.03
2018-08-03T02:17:49.112Z,21.07
2018-08-03T02:18:49.131Z,21.32
2018-08-03T02:19:49.152Z,21.50
2018-08-03T02:20:49.190Z,21.57
2018-08-03T02:21:49.200Z,21.73
2018-08-03T02:22:49.217Z,21.83
2018-08-03T02:23:49.240Z,21.91
2018-08-03T02:24:49.263Z,21.89
2018-08-03T02:25:49.285Z,22.02
2018-08-03T02:26:49.310Z,21.96
2018-08-03T02:27:49.326Z,21.89
2018-08-03T02:28:49.348Z,21.70
2018-08-03T02:29:49.370Z,21.62
2018-08-03T02:30:49.399Z,21.70
2018-08-03T02:31:49.463Z,21.91
2018-08-03T02:32:49.433Z,21.93
2018-08-03T02:33:49.458Z,22.04
2018-08-03T02:34:49.481Z,21.91
2018-08-03T02:35:49.521Z,21.79
2018-08-03T02:36:49.523Z,21.93
2018-08-03T02:37:49.559Z,21.88
2018-08-03T02:38:49.572Z,21.88
2018-08-03T02:39:49.585Z,21.72
2018-08-03T02:40:49.621Z,21.43
2018-08-03T02:41:49.694Z,21.37
2018-08-03T02:42:49.652Z,21.14
2018-08-03T02:43:49.673Z,21.06
2018-08-03T02:44:49.696Z,21.00
2018-08-03T02:45:49.715Z,21.00
2018-08-03T02:46:49.736Z,20.95
2018-08-03T02:47:49.763Z,20.87
2018-08-03T02:48:49.779Z,20.90
2018-08-03T02:49:49.820Z,20.84
2018-08-03T02:50:49.826Z,20.77
2018-08-03T02:51:49.854Z,20.78
2018-08-03T02:52:49.866Z,20.81
2018-08-03T02:53:49.892Z,20.81
2018-08-03T02:54:49.910Z,20.80
2018-08-03T02:55:49.933Z,20.87
2018-08-03T02:56:49.959Z,20.77
2018-08-03T02:57:49.975Z,20.60
2018-08-03T02:58:50.000Z,20.62
2018-08-03T02:59:50.019Z,20.67
2018-08-03T03:00:50.068Z,20.65
2018-08-03T03:01:50.076Z,20.56
2018-08-03T03:02:50.084Z,20.47
2018-08-03T03:03:50.107Z,20.62
2018-08-03T03:04:50.127Z,20.52
2018-08-03T03:05:50.148Z,20.65
2018-08-03T03:06:50.169Z,20.63
2018-08-03T03:07:50.199Z,20.63
2018-08-03T03:08:50.213Z,20.72
2018-08-03T03:09:50.236Z,20.77
2018-08-03T03:10:50.259Z,20.69
2018-08-03T03:11:50.280Z,20.81
2018-08-03T03:12:50.299Z,20.74
2018-08-03T03:13:50.324Z,20.67
2018-08-03T03:14:50.346Z,20.52
2018-08-03T03:15:50.365Z,20.48
2018-08-03T03:16:50.388Z,20.47
2018-08-03T03:17:50.409Z,20.48
2018-08-03T03:18:50.463Z,20.59
2018-08-03T03:19:50.472Z,20.72
2018-08-03T03:20:50.472Z,20.65
2018-08-03T03:21:50.493Z,20.82
2018-08-03T03:22:50.515Z,20.77
2018-08-03T03:23:50.537Z,20.84
2018-08-03T03:24:50.556Z,20.82
2018-08-03T03:25:50.581Z,20.85
2018-08-03T03:26:50.599Z,20.74
2018-08-03T03:27:50.622Z,20.84
2018-08-03T03:28:50.643Z,20.70
2018-08-03T03:29:50.664Z,20.60
2018-08-03T03:30:50.692Z,20.41
2018-08-03T03:31:50.730Z,20.16
2018-08-03T03:32:50.744Z,20.19
2018-08-03T03:33:50.753Z,20.21
2018-08-03T03:34:50.776Z,20.09
2018-08-03T03:35:50.799Z,20.06
2018-08-03T03:36:50.815Z,19.96
2018-08-03T03:37:50.840Z,19.91
2018-08-03T03:38:50.859Z,20.06
2018-08-03T03:39:50.879Z,20.07
2018-08-03T03:40:50.901Z,20.29
2018-08-03T03:41:50.922Z,20.39
2018-08-03T03:42:50.944Z,20.58
2018-08-03T03:43:50.969Z,20.69
2018-08-03T03:44:50.993Z,20.78
2018-08-03T03:45:51.010Z,20.90
2018-08-03T03:46:51.031Z,20.70
2018-08-03T03:47:51.053Z,20.63
2018-08-03T03:48:51.074Z,20.70
2018-08-03T03:49:51.095Z,20.77
2018-08-03T03:50:51.121Z,20.87
2018-08-03T03:51:51.138Z,20.95
2018-08-03T03:52:51.211Z,20.95
2018-08-03T03:53:51.180Z,20.85
2018-08-03T03:54:51.202Z,20.97
2018-08-03T03:55:51.224Z,20.96
2018-08-03T03:56:51.249Z,20.93
2018-08-03T03:57:51.272Z,20.69
2018-08-03T03:58:51.289Z,20.51
2018-08-03T03:59:51.309Z,20.41
2018-08-03T04:00:51.337Z,20.24
2018-08-03T04:01:51.352Z,20.39
2018-08-03T04:02:51.377Z,20.34
2018-08-03T04:03:51.441Z,20.16
2018-08-03T04:04:51.424Z,20.14
2018-08-03T04:05:51.443Z,20.13
2018-08-03T04:06:51.459Z,20.02
2018-08-03T04:07:51.481Z,20.10
2018-08-03T04:08:51.498Z,20.32
2018-08-03T04:09:51.523Z,20.51
2018-08-03T04:10:51.562Z,20.75
2018-08-03T04:11:51.569Z,20.93
2018-08-03T04:12:51.591Z,20.84
2018-08-03T04:13:51.607Z,20.85
2018-08-03T04:14:51.628Z,21.00
2018-08-03T04:15:51.650Z,20.75
2018-08-03T04:16:51.672Z,20.60
2018-08-03T04:17:51.701Z,20.63
2018-08-03T04:18:51.751Z,20.52
2018-08-03T04:19:51.737Z,20.41
2018-08-03T04:20:51.762Z,20.26
2018-08-03T04:21:51.797Z,20.16
2018-08-03T04:22:51.808Z,20.13
2018-08-03T04:23:51.824Z,20.26
2018-08-03T04:24:51.860Z,20.29
2018-08-03T04:25:51.868Z,20.36
2018-08-03T04:26:51.890Z,20.28
2018-08-03T04:27:51.910Z,20.29
2018-08-03T04:28:51.931Z,20.26
2018-08-03T04:29:51.951Z,20.26
2018-08-03T04:30:51.978Z,20.26
2018-08-03T04:31:51.996Z,20.25
2018-08-03T04:32:52.020Z,20.50
2018-08-03T04:33:52.037Z,20.40
2018-08-03T04:34:52.059Z,20.48
2018-08-03T04:35:52.085Z,20.70
2018-08-03T04:36:52.102Z,20.80
2018-08-03T04:37:52.127Z,21.02
2018-08-03T04:38:52.173Z,20.93
2018-08-03T04:39:52.170Z,20.80
2018-08-03T04:40:52.190Z,20.84
2018-08-03T04:41:52.210Z,20.97
2018-08-03T04:42:52.236Z,21.03
2018-08-03T04:43:52.255Z,21.09
2018-08-03T04:44:52.279Z,21.27
2018-08-03T04:45:52.300Z,21.22
2018-08-03T04:46:52.329Z,21.50
2018-08-03T04:47:52.342Z,21.33
2018-08-03T04:48:52.364Z,21.27
2018-08-03T04:49:52.386Z,21.06
2018-08-03T04:50:52.407Z,20.93
2018-08-03T04:51:52.436Z,20.96
2018-08-03T04:52:52.448Z,20.96
2018-08-03T04:53:52.472Z,20.92
2018-08-03T04:54:52.494Z,21.02
2018-08-03T04:55:52.517Z,20.95
2018-08-03T04:56:52.550Z,21.03
2018-08-03T04:57:52.678Z,21.03
2018-08-03T04:58:52.583Z,21.15
2018-08-03T04:59:52.606Z,21.55
2018-08-03T05:00:52.680Z,21.98
2018-08-03T05:01:52.646Z,22.69
2018-08-03T05:02:52.687Z,23.63
2018-08-03T05:03:52.707Z,24.06
2018-08-03T05:04:52.752Z,24.38
2018-08-03T05:05:52.743Z,24.80
2018-08-03T05:06:52.761Z,25.18
2018-08-03T05:07:52.784Z,25.78
2018-08-03T05:08:52.809Z,26.06
2018-08-03T05:09:52.835Z,26.10
2018-08-03T05:10:52.861Z,26.36
2018-08-03T05:11:52.883Z,26.74
2018-08-03T05:12:52.908Z,26.68
2018-08-03T05:13:52.932Z,27.17
2018-08-03T05:14:52.960Z,27.93
2018-08-03T05:15:52.981Z,28.79
2018-08-03T05:16:53.004Z,29.34
2018-08-03T05:17:53.033Z,29.39
2018-08-03T05:18:53.059Z,29.05
2018-08-03T05:19:53.083Z,28.75
2018-08-03T05:20:53.111Z,28.30
2018-08-03T05:21:53.133Z,28.05
2018-08-03T05:22:53.159Z,27.92
2018-08-03T05:23:53.199Z,27.71
2018-08-03T05:24:53.214Z,27.42
2018-08-03T05:25:53.240Z,27.37
2018-08-03T05:26:53.266Z,27.45
2018-08-03T05:27:53.297Z,27.37
2018-08-03T05:28:53.326Z,27.21
2018-08-03T05:29:53.351Z,27.25
2018-08-03T05:30:53.376Z,27.87
2018-08-03T05:31:53.405Z,27.89
2018-08-03T05:32:53.432Z,27.85
2018-08-03T05:33:53.457Z,27.67
2018-08-03T05:34:53.490Z,27.90
2018-08-03T05:35:53.526Z,27.77
2018-08-03T05:36:53.547Z,27.74
2018-08-03T05:37:53.571Z,28.05
2018-08-03T05:38:53.598Z,28.54
2018-08-03T05:39:53.629Z,29.32
2018-08-03T05:40:53.655Z,29.98
2018-08-03T05:41:53.684Z,30.81
2018-08-03T05:42:53.725Z,31.77
2018-08-03T05:43:53.750Z,32.37
2018-08-03T05:44:53.767Z,32.15
2018-08-03T05:45:53.796Z,31.70
2018-08-03T05:46:53.828Z,31.65
2018-08-03T05:47:53.857Z,31.33
2018-08-03T05:48:53.889Z,30.53
2018-08-03T05:49:53.928Z,31.17
2018-08-03T05:50:53.944Z,31.93
2018-08-03T05:51:53.973Z,32.68
2018-08-03T05:52:54.046Z,33.28
2018-08-03T05:53:54.029Z,33.69
2018-08-03T05:54:54.059Z,32.53
2018-08-03T05:55:54.090Z,33.59
2018-08-03T05:56:54.118Z,33.84
2018-08-03T05:57:54.184Z,32.89
2018-08-03T05:58:54.222Z,31.65
2018-08-03T05:59:54.216Z,31.70
2018-08-03T06:00:54.238Z,30.83
2018-08-03T06:01:54.268Z,30.96
2018-08-03T06:02:54.298Z,31.61
2018-08-03T06:03:54.333Z,31.80
2018-08-03T06:04:54.359Z,32.11
2018-08-03T06:05:54.397Z,33.65
2018-08-03T06:06:54.415Z,34.64
2018-08-03T06:07:54.472Z,34.96
2018-08-03T06:08:54.481Z,35.45
2018-08-03T06:09:54.508Z,35.18
2018-08-03T06:10:54.562Z,34.33
2018-08-03T06:11:54.570Z,33.58
2018-08-03T06:12:54.598Z,32.80
2018-08-03T06:13:54.631Z,32.55
2018-08-03T06:14:54.711Z,32.71
2018-08-03T06:15:54.692Z,33.39
2018-08-03T06:16:54.722Z,34.06
2018-08-03T06:17:54.754Z,33.52
2018-08-03T06:18:54.782Z,33.96
2018-08-03T06:19:54.815Z,35.15
2018-08-03T06:20:54.844Z,35.71
2018-08-03T06:21:54.879Z,35.88
2018-08-03T06:22:54.907Z,35.07
2018-08-03T06:23:54.939Z,34.16
2018-08-03T06:24:54.970Z,34.25
2018-08-03T06:25:55.001Z,34.96
2018-08-03T06:26:55.038Z,34.71
2018-08-03T06:27:55.067Z,34.93
2018-08-03T06:28:55.094Z,34.57
2018-08-03T06:29:55.123Z,33.67
2018-08-03T06:30:55.157Z,33.12
2018-08-03T06:31:55.192Z,33.00
2018-08-03T06:32:55.215Z,33.19
2018-08-03T06:33:55.252Z,33.83
2018-08-03T06:34:55.280Z,33.27
2018-08-03T06:35:55.315Z,33.36
2018-08-03T06:36:55.344Z,32.86
2018-08-03T06:37:55.378Z,32.64
2018-08-03T06:38:55.406Z,34.36
2018-08-03T06:39:55.437Z,34.06
2018-08-03T06:40:55.467Z,33.22
2018-08-03T06:41:55.505Z,32.89
2018-08-03T06:42:55.536Z,32.73
2018-08-03T06:43:55.566Z,32.97
2018-08-03T06:44:55.593Z,33.62
2018-08-03T06:45:55.763Z,33.39
2018-08-03T06:46:55.670Z,33.83
2018-08-03T06:47:55.690Z,33.80
2018-08-03T06:48:55.723Z,34.16
2018-08-03T06:49:55.752Z,33.86
2018-08-03T06:50:55.788Z,33.67
2018-08-03T06:51:55.813Z,34.05
2018-08-03T06:52:55.848Z,34.29
2018-08-03T06:53:55.875Z,34.36
2018-08-03T06:54:55.922Z,34.45
2018-08-03T06:55:55.944Z,34.18
2018-08-03T06:56:55.972Z,34.99
2018-08-03T06:57:56.003Z,35.42
2018-08-03T06:58:56.046Z,34.61
2018-08-03T06:59:56.067Z,34.89
2018-08-03T07:00:56.107Z,35.79
2018-08-03T07:01:56.129Z,37.03
2018-08-03T07:02:56.186Z,36.54
2018-08-03T07:03:56.194Z,36.08
2018-08-03T07:04:56.269Z,35.68
2018-08-03T07:05:56.260Z,35.44
2018-08-03T07:06:56.292Z,34.96
2018-08-03T07:07:56.322Z,35.83
2018-08-03T07:08:56.356Z,37.01
2018-08-03T07:09:56.386Z,36.55
2018-08-03T07:10:56.421Z,35.37
2018-08-03T07:11:56.453Z,35.00
2018-08-03T07:12:56.498Z,36.20
2018-08-03T07:13:56.515Z,36.42
2018-08-03T07:14:56.594Z,36.51
2018-08-03T07:15:56.580Z,37.71
2018-08-03T07:16:56.611Z,39.02
2018-08-03T07:17:56.655Z,39.48
2018-08-03T07:18:56.683Z,39.99
2018-08-03T07:19:56.718Z,39.70
2018-08-03T07:20:56.752Z,38.61
2018-08-03T07:21:56.772Z,38.82
2018-08-03T07:22:56.822Z,37.74
2018-08-03T07:23:56.838Z,37.06
2018-08-03T07:24:56.869Z,37.75
2018-08-03T07:25:56.915Z,36.96
2018-08-03T07:26:56.941Z,37.90
2018-08-03T07:27:56.970Z,38.80
2018-08-03T07:28:57.001Z,39.77
2018-08-03T07:29:57.032Z,39.44
2018-08-03T07:30:57.078Z,39.29
2018-08-03T07:31:57.097Z,38.01
2018-08-03T07:32:57.130Z,37.32
2018-08-03T07:33:57.165Z,37.03
2018-08-03T07:34:57.195Z,36.59
2018-08-03T07:35:57.231Z,36.55
2018-08-03T07:36:57.322Z,37.30
2018-08-03T07:37:57.292Z,38.69
2018-08-03T07:38:57.362Z,40.04
2018-08-03T07:39:57.373Z,40.97
2018-08-03T07:40:57.392Z,41.56
2018-08-03T07:41:57.422Z,41.91
2018-08-03T07:42:57.535Z,42.32
2018-08-03T07:43:57.489Z,42.19
2018-08-03T07:44:57.539Z,40.51
2018-08-03T07:45:57.557Z,39.43
2018-08-03T07:46:57.589Z,40.16
2018-08-03T07:47:57.622Z,39.15
2018-08-03T07:48:57.651Z,38.77
2018-08-03T07:49:57.689Z,40.21
2018-08-03T07:50:57.732Z,40.96
2018-08-03T07:51:57.747Z,40.72
2018-08-03T07:52:57.783Z,42.06
2018-08-03T07:53:57.825Z,42.09
2018-08-03T07:54:57.848Z,41.97
2018-08-03T07:55:57.883Z,41.97
2018-08-03T07:56:57.912Z,40.51
2018-08-03T07:57:57.946Z,40.30
2018-08-03T07:58:57.981Z,40.44
2018-08-03T07:59:58.018Z,41.45
2018-08-03T08:00:58.047Z,41.87
2018-08-03T08:01:58.077Z,41.00
2018-08-03T08:02:58.110Z,41.07
2018-08-03T08:03:59.009Z,41.68
2018-08-03T08:04:58.188Z,41.94
2018-08-03T08:05:58.208Z,42.58
2018-08-03T08:06:58.240Z,40.81
2018-08-03T08:07:58.275Z,41.25
2018-08-03T08:08:58.307Z,42.72
2018-08-03T08:09:58.341Z,43.23
2018-08-03T08:10:58.383Z,43.28
2018-08-03T08:11:58.406Z,44.05
2018-08-03T08:12:58.439Z,44.20
2018-08-03T08:13:58.492Z,43.03
2018-08-03T08:14:58.518Z,40.95
2018-08-03T08:15:58.561Z,39.94
2018-08-03T08:16:58.619Z,38.87
2018-08-03T08:17:58.604Z,38.69
2018-08-03T08:18:58.637Z,39.06
2018-08-03T08:19:58.669Z,39.17
2018-08-03T08:20:58.702Z,38.97
2018-08-03T08:21:58.734Z,38.60
2018-08-03T08:22:58.769Z,40.04
2018-08-03T08:23:58.802Z,40.77
2018-08-03T08:24:58.845Z,41.03
2018-08-03T08:25:58.872Z,41.70
2018-08-03T08:26:58.898Z,41.29
2018-08-03T08:27:58.931Z,41.99
2018-08-03T08:28:58.964Z,42.51
2018-08-03T08:29:58.993Z,41.99
2018-08-03T08:30:59.026Z,42.43
2018-08-03T08:31:59.062Z,42.02
2018-08-03T08:32:59.090Z,40.95
2018-08-03T08:33:59.123Z,40.46
2018-08-03T08:34:59.157Z,40.53
2018-08-03T08:35:59.186Z,40.61
2018-08-03T08:36:59.329Z,40.92
2018-08-03T08:37:59.248Z,41.06
2018-08-03T08:38:59.280Z,41.43
2018-08-03T08:39:59.311Z,40.97
2018-08-03T08:40:59.339Z,40.75
2018-08-03T08:41:59.374Z,40.28
2018-08-03T08:42:59.411Z,40.06
2018-08-03T08:43:59.519Z,39.92
2018-08-03T08:44:59.463Z,40.05
2018-08-03T08:45:59.499Z,39.97
2018-08-03T08:46:59.534Z,39.37
2018-08-03T08:47:59.555Z,38.89
2018-08-03T08:48:59.586Z,37.55
2018-08-03T08:49:59.618Z,37.60
2018-08-03T08:50:59.643Z,37.83
2018-08-03T08:51:59.670Z,36.92
2018-08-03T08:52:59.758Z,36.30
2018-08-03T08:53:59.740Z,35.76
2018-08-03T08:54:59.760Z,35.36
2018-08-03T08:55:59.789Z,35.67
2018-08-03T08:56:59.818Z,36.55
2018-08-03T08:57:59.843Z,36.27
2018-08-03T08:58:59.874Z,35.36
2018-08-03T08:59:59.902Z,35.58
2018-08-03T09:01:00.008Z,35.44
2018-08-03T09:01:59.958Z,34.95
2018-08-03T09:02:59.985Z,34.70
2018-08-03T09:04:00.019Z,35.30
2018-08-03T09:05:00.045Z,35.30
2018-08-03T09:06:00.071Z,34.99
2018-08-03T09:07:00.104Z,34.71
2018-08-03T09:08:00.129Z,35.33
2018-08-03T09:09:00.158Z,35.85
2018-08-03T09:10:00.182Z,35.93
2018-08-03T09:11:00.215Z,35.90
2018-08-03T09:12:00.237Z,35.80
2018-08-03T09:13:00.280Z,35.48
2018-08-03T09:14:00.303Z,35.29
2018-08-03T09:15:00.324Z,35.53
2018-08-03T09:16:00.355Z,35.73
2018-08-03T09:17:00.376Z,35.80
2018-08-03T09:18:00.405Z,35.31
2018-08-03T09:19:00.431Z,35.10
2018-08-03T09:20:00.459Z,35.53
2018-08-03T09:21:00.488Z,35.44
2018-08-03T09:22:00.533Z,35.85
2018-08-03T09:23:00.541Z,36.54
2018-08-03T09:24:00.567Z,36.61
2018-08-03T09:25:00.596Z,36.54
2018-08-03T09:26:00.621Z,36.52
2018-08-03T09:27:00.650Z,36.14
2018-08-03T09:28:00.676Z,35.98
2018-08-03T09:29:00.707Z,36.07
2018-08-03T09:30:00.734Z,36.16
2018-08-03T09:31:00.787Z,36.20
2018-08-03T09:32:00.796Z,36.04
2018-08-03T09:33:00.815Z,36.00
2018-08-03T09:34:00.851Z,36.04
2018-08-03T09:35:00.868Z,36.08
2018-08-03T09:36:00.898Z,36.16
2018-08-03T09:37:00.927Z,35.58
2018-08-03T09:38:00.955Z,34.97
2018-08-03T09:39:00.980Z,35.31
2018-08-03T09:40:01.004Z,35.02
2018-08-03T09:41:01.033Z,34.62
2018-08-03T09:42:01.058Z,35.55
2018-08-03T09:43:01.150Z,36.02
2018-08-03T09:44:01.128Z,35.29
2018-08-03T09:45:01.151Z,35.22
2018-08-03T09:46:01.168Z,34.73
2018-08-03T09:47:01.198Z,34.85
2018-08-03T09:48:01.226Z,34.74
2018-08-03T09:49:01.251Z,34.85
2018-08-03T09:50:01.280Z,34.40
2018-08-03T09:51:01.308Z,34.45
2018-08-03T09:52:01.332Z,34.40
2018-08-03T09:53:01.361Z,34.23
2018-08-03T09:54:01.386Z,34.58
2018-08-03T09:55:01.413Z,35.17
2018-08-03T09:56:01.439Z,35.41
2018-08-03T09:57:01.467Z,35.56
2018-08-03T09:58:01.494Z,36.16
2018-08-03T09:59:01.519Z,35.49
2018-08-03T10:00:01.547Z,35.37
2018-08-03T10:01:01.571Z,35.24
2018-08-03T10:02:01.599Z,34.61
2018-08-03T10:03:01.645Z,34.51
2018-08-03T10:04:01.650Z,34.60
2018-08-03T10:05:01.679Z,35.11
2018-08-03T10:06:01.712Z,34.88
2018-08-03T10:07:01.733Z,35.24
2018-08-03T10:08:01.763Z,35.44
2018-08-03T10:09:01.789Z,35.27
2018-08-03T10:10:01.815Z,35.68
2018-08-03T10:11:01.837Z,35.76
2018-08-03T10:12:01.866Z,35.76
2018-08-03T10:13:01.896Z,35.95
2018-08-03T10:14:01.920Z,35.73
2018-08-03T10:15:01.947Z,35.74
2018-08-03T10:16:01.974Z,35.89
2018-08-03T10:17:02.001Z,35.95
2018-08-03T10:18:02.030Z,35.74
2018-08-03T10:19:02.055Z,35.48
2018-08-03T10:20:02.080Z,35.79
2018-08-03T10:21:02.104Z,36.00
2018-08-03T10:22:02.131Z,36.39
2018-08-03T10:23:02.161Z,36.72
2018-08-03T10:24:02.190Z,36.55
2018-08-03T10:25:02.214Z,36.81
2018-08-03T10:26:02.241Z,36.46
2018-08-03T10:27:02.266Z,36.96
2018-08-03T10:28:02.297Z,36.99
2018-08-03T10:29:02.324Z,37.15
2018-08-03T10:30:02.351Z,37.55
2018-08-03T10:31:02.378Z,37.75
2018-08-03T10:32:02.426Z,37.58
2018-08-03T10:33:02.432Z,37.35
2018-08-03T10:34:02.460Z,36.86
2018-08-03T10:35:02.518Z,36.96
2018-08-03T10:36:02.512Z,36.88
2018-08-03T10:37:02.561Z,36.37
2018-08-03T10:38:02.569Z,36.09
2018-08-03T10:39:02.595Z,36.42
2018-08-03T10:40:02.623Z,36.43
2018-08-03T10:41:02.649Z,36.02
2018-08-03T10:42:02.674Z,35.53
2018-08-03T10:43:02.735Z,35.83
2018-08-03T10:44:02.733Z,35.58
2018-08-03T10:45:02.760Z,35.51
2018-08-03T10:46:02.786Z,35.52
2018-08-03T10:47:02.837Z,35.44
2018-08-03T10:48:02.838Z,35.11
2018-08-03T10:49:02.868Z,35.52
2018-08-03T10:50:02.898Z,35.31
2018-08-03T10:51:02.925Z,35.53
2018-08-03T10:52:02.947Z,35.39
2018-08-03T10:53:02.973Z,35.39
2018-08-03T10:54:03.003Z,35.44
2018-08-03T10:55:03.033Z,35.14
2018-08-03T10:56:03.058Z,35.53
2018-08-03T10:57:03.084Z,35.86
2018-08-03T10:58:03.109Z,36.02
2018-08-03T10:59:03.137Z,36.09
2018-08-03T11:00:03.171Z,35.90
2018-08-03T11:01:03.192Z,36.02
2018-08-03T11:02:03.218Z,36.00
2018-08-03T11:03:03.247Z,36.39
2018-08-03T11:04:03.274Z,36.14
2018-08-03T11:05:03.301Z,35.98
2018-08-03T11:06:03.326Z,35.82
2018-08-03T11:07:03.353Z,36.02
2018-08-03T11:08:03.392Z,35.79
2018-08-03T11:09:03.446Z,35.88
2018-08-03T11:10:03.436Z,36.18
2018-08-03T11:11:03.467Z,36.07
2018-08-03T11:12:03.492Z,35.73
2018-08-03T11:13:03.519Z,36.12
2018-08-03T11:14:03.582Z,36.58
2018-08-03T11:15:03.572Z,36.25
2018-08-03T11:16:03.598Z,36.04
2018-08-03T11:17:03.627Z,35.74
2018-08-03T11:18:03.657Z,35.56
2018-08-03T11:19:03.679Z,35.42
2018-08-03T11:20:03.720Z,35.23
2018-08-03T11:21:03.735Z,35.23
2018-08-03T11:22:03.763Z,35.45
2018-08-03T11:23:03.791Z,35.53
2018-08-03T11:24:03.869Z,36.00
2018-08-03T11:25:03.843Z,36.40
2018-08-03T11:26:03.872Z,36.18
2018-08-03T11:27:03.900Z,35.64
2018-08-03T11:28:03.925Z,36.02
2018-08-03T11:29:03.951Z,35.88
2018-08-03T11:30:03.978Z,36.14
2018-08-03T11:31:04.008Z,35.86
2018-08-03T11:32:04.034Z,35.98
2018-08-03T11:33:04.062Z,36.61
2018-08-03T11:34:04.091Z,36.43
2018-08-03T11:35:04.122Z,36.14
2018-08-03T11:36:04.144Z,36.05
2018-08-03T11:37:04.175Z,35.66
2018-08-03T11:38:04.197Z,35.00
2018-08-03T11:39:04.227Z,35.37
2018-08-03T11:40:04.258Z,35.27
2018-08-03T11:41:04.323Z,35.48
2018-08-03T11:42:04.330Z,35.83
2018-08-03T11:43:04.339Z,36.05
2018-08-03T11:44:04.367Z,36.17
2018-08-03T11:45:04.384Z,36.54
2018-08-03T11:46:04.413Z,36.67
2018-08-03T11:47:04.447Z,36.72
2018-08-03T11:48:04.471Z,36.83
2018-08-03T11:49:04.503Z,36.42
2018-08-03T11:50:04.528Z,36.36
2018-08-03T11:51:04.550Z,36.72
2018-08-03T11:52:04.582Z,36.49
2018-08-03T11:53:04.606Z,36.47
2018-08-03T11:54:04.683Z,36.55
2018-08-03T11:55:04.659Z,36.36
2018-08-03T11:56:04.686Z,36.67
2018-08-03T11:57:04.714Z,36.76
2018-08-03T11:58:04.742Z,36.62
2018-08-03T11:59:04.769Z,35.98
2018-08-03T12:00:04.810Z,36.05
2018-08-03T12:01:04.823Z,36.24
2018-08-03T12:02:04.852Z,36.65
2018-08-03T12:03:04.884Z,36.91
2018-08-03T12:04:04.904Z,36.80
2018-08-03T12:05:04.929Z,36.51
2018-08-03T12:06:04.963Z,36.58
2018-08-03T12:07:04.988Z,36.33
2018-08-03T12:08:05.014Z,36.40
2018-08-03T12:09:05.037Z,36.65
2018-08-03T12:10:05.066Z,36.40
2018-08-03T12:11:05.096Z,36.39
2018-08-03T12:12:05.121Z,36.28
2018-08-03T12:13:05.149Z,36.17
2018-08-03T12:14:05.174Z,36.39
2018-08-03T12:15:05.198Z,36.46
2018-08-03T12:16:05.231Z,36.57
2018-08-03T12:17:05.258Z,36.55
2018-08-03T12:18:05.281Z,36.37
2018-08-03T12:19:05.314Z,36.12
2018-08-03T12:20:05.339Z,36.37
2018-08-03T12:21:05.364Z,36.73
2018-08-03T12:22:05.390Z,36.24
2018-08-03T12:23:05.431Z,36.49
2018-08-03T12:24:05.455Z,36.58
2018-08-03T12:25:05.476Z,36.58
2018-08-03T12:26:05.505Z,36.55
2018-08-03T12:27:05.526Z,36.20
2018-08-03T12:28:05.553Z,35.58
2018-08-03T12:29:05.582Z,35.53
2018-08-03T12:30:05.609Z,35.90
2018-08-03T12:31:05.643Z,36.35
2018-08-03T12:32:05.665Z,36.47
2018-08-03T12:33:05.688Z,36.58
2018-08-03T12:34:05.720Z,36.39
2018-08-03T12:35:05.744Z,36.67
2018-08-03T12:36:05.767Z,36.83
2018-08-03T12:37:05.852Z,36.88
2018-08-03T12:38:05.841Z,36.89
2018-08-03T12:39:05.858Z,36.98
2018-08-03T12:40:05.880Z,37.18
2018-08-03T12:41:05.906Z,37.23
2018-08-03T12:42:05.933Z,37.21
2018-08-03T12:43:05.962Z,37.20
2018-08-03T12:44:05.989Z,37.32
2018-08-03T12:45:06.017Z,37.02
2018-08-03T12:46:06.072Z,36.81
2018-08-03T12:47:06.072Z,36.72
2018-08-03T12:48:06.101Z,36.36
2018-08-03T12:49:06.128Z,36.57
2018-08-03T12:50:06.154Z,36.89
2018-08-03T12:51:06.180Z,36.91
2018-08-03T12:52:06.210Z,36.93
2018-08-03T12:53:06.235Z,37.21